Liberty of The Seas — C6VQ8 — position and weather

sailwx.info

Track history (hours):
 
Tides and Currents Weather Stations Pressure Air Temp Water Temp Dewpoint Dewpoint Depression Visibility Wind Speed Wind Dir Waves Ship Positions

Liberty of The Seas

Last reported at 2020-Aug-07 21:45 UTC. Time now 2020-Aug-09 22:56 UTC.
Position N 13°17' W 059°51'.

Type: Passenger vessel. MMSI: 309436000.

Date/timePositionNaut miles runAvg speedWind from/ knotsBaromVisibWave heightAir tempDewpointWater temp
2020-Aug-07 21:45N 13°17' W 059°51'5 2.4
2020-Aug-07 19:30N 13°12' W 059°48'4 1.9
2020-Aug-07 17:30N 13°09' W 059°46'2 1.9
2020-Aug-07 16:30N 13°08' W 059°45'6 2.3
2020-Aug-07 14:00N 13°06' W 059°39'1 0.9
2020-Aug-07 13:00N 13°06' W 059°40'2 4.6
2020-Aug-07 12:30N 13°06' W 059°42'  
2020-Aug-04 22:30N 13°08' W 059°49'3 2.1
2020-Aug-04 20:58N 13°11' W 059°48'1 1.4
2020-Aug-04 20:00N 13°11' W 059°46'12 0.3
2020-Aug-03 03:13N 13°18' W 059°56'5 1.4
2020-Aug-02 23:59N 13°14' W 059°53'10 0.3
2020-Aug-01 15:57N 13°08' W 059°45'2 1.0
2020-Aug-01 14:00N 13°07' W 059°44'4 0.2
2020-Jul-31 10:00N 13°08' W 059°48'3 0.9
2020-Jul-31 06:30N 13°06' W 059°45'0 0.9
2020-Jul-31 06:00N 13°06' W 059°45'1 0.9
2020-Jul-31 05:00N 13°06' W 059°44'3 3.2
2020-Jul-31 04:00N 13°03' W 059°43'  
Track history (hours):
 
Tides and Currents Weather Stations Pressure Air Temp Water Temp Dewpoint Dewpoint Depression Visibility Wind Speed Wind Dir Waves Ship Positions

Liberty of The Seas

Last reported at 2020-Aug-07 21:45 UTC. Time now 2020-Aug-09 22:56 UTC.
Position N 13°17' W 059°51'.

Type: Passenger vessel. MMSI: 309436000.

Date/timePositionNaut miles runAvg speedWind from/ knotsBaromVisibWave heightAir tempDewpointWater temp
2020-Aug-07 21:45N 13°17' W 059°51'5 2.4
2020-Aug-07 19:30N 13°12' W 059°48'4 1.9
2020-Aug-07 17:30N 13°09' W 059°46'2 1.9
2020-Aug-07 16:30N 13°08' W 059°45'6 2.3
2020-Aug-07 14:00N 13°06' W 059°39'1 0.9
2020-Aug-07 13:00N 13°06' W 059°40'2 4.6
2020-Aug-07 12:30N 13°06' W 059°42'  
2020-Aug-04 22:30N 13°08' W 059°49'3 2.1
2020-Aug-04 20:58N 13°11' W 059°48'1 1.4
2020-Aug-04 20:00N 13°11' W 059°46'12 0.3
2020-Aug-03 03:13N 13°18' W 059°56'5 1.4
2020-Aug-02 23:59N 13°14' W 059°53'10 0.3
2020-Aug-01 15:57N 13°08' W 059°45'2 1.0
2020-Aug-01 14:00N 13°07' W 059°44'4 0.2
2020-Jul-31 10:00N 13°08' W 059°48'3 0.9
2020-Jul-31 06:30N 13°06' W 059°45'0 0.9
2020-Jul-31 06:00N 13°06' W 059°45'1 0.9
2020-Jul-31 05:00N 13°06' W 059°44'3 3.2
2020-Jul-31 04:00N 13°03' W 059°43'  

Dump ship's entire track history